sensor_id;sensor_type;location;lat;lon;timestamp;P1;durP1;ratioP1;P2;durP2;ratioP2
45402;SDS011;47427;51.976;5.326;2022-11-18T00:01:41;9.90;;;4.65;;
45402;SDS011;47427;51.976;5.326;2022-11-18T00:05:02;11.18;;;4.40;;
45402;SDS011;47427;51.976;5.326;2022-11-18T00:08:24;9.07;;;4.85;;
45402;SDS011;47427;51.976;5.326;2022-11-18T00:11:46;11.25;;;4.40;;
45402;SDS011;47427;51.976;5.326;2022-11-18T00:15:26;7.78;;;4.78;;
45402;SDS011;47427;51.976;5.326;2022-11-18T00:18:48;8.77;;;4.35;;
45402;SDS011;47427;51.976;5.326;2022-11-18T00:22:10;10.85;;;4.38;;
45402;SDS011;47427;51.976;5.326;2022-11-18T00:25:33;11.32;;;4.60;;
45402;SDS011;47427;51.976;5.326;2022-11-18T00:28:54;8.15;;;4.40;;
45402;SDS011;47427;51.976;5.326;2022-11-18T00:32:16;9.13;;;4.68;;
45402;SDS011;47427;51.976;5.326;2022-11-18T00:35:37;9.20;;;4.57;;
45402;SDS011;47427;51.976;5.326;2022-11-18T00:38:59;11.80;;;5.05;;
45402;SDS011;47427;51.976;5.326;2022-11-18T00:42:20;8.70;;;4.55;;
45402;SDS011;47427;51.976;5.326;2022-11-18T00:46:26;12.60;;;5.47;;
45402;SDS011;47427;51.976;5.326;2022-11-18T00:49:47;12.43;;;4.45;;
45402;SDS011;47427;51.976;5.326;2022-11-18T00:53:09;14.60;;;4.88;;
45402;SDS011;47427;51.976;5.326;2022-11-18T00:56:31;5.90;;;3.90;;
45402;SDS011;47427;51.976;5.326;2022-11-18T00:59:53;11.88;;;6.97;;
45402;SDS011;47427;51.976;5.326;2022-11-18T01:03:14;10.88;;;5.25;;
45402;SDS011;47427;51.976;5.326;2022-11-18T01:06:36;13.65;;;5.25;;
45402;SDS011;47427;51.976;5.326;2022-11-18T01:09:57;10.20;;;5.45;;
45402;SDS011;47427;51.976;5.326;2022-11-18T01:13:19;9.85;;;4.90;;
45402;SDS011;47427;51.976;5.326;2022-11-18T01:16:43;6.90;;;4.60;;
45402;SDS011;47427;51.976;5.326;2022-11-18T01:20:10;10.50;;;4.65;;
45402;SDS011;47427;51.976;5.326;2022-11-18T01:23:32;11.02;;;4.90;;
45402;SDS011;47427;51.976;5.326;2022-11-18T01:26:53;11.13;;;5.07;;
45402;SDS011;47427;51.976;5.326;2022-11-18T01:30:15;12.23;;;5.40;;
45402;SDS011;47427;51.976;5.326;2022-11-18T01:33:37;11.35;;;5.53;;
45402;SDS011;47427;51.976;5.326;2022-11-18T01:36:59;7.53;;;4.97;;
45402;SDS011;47427;51.976;5.326;2022-11-18T01:40:20;12.35;;;5.10;;
45402;SDS011;47427;51.976;5.326;2022-11-18T01:44:55;19.98;;;5.82;;
45402;SDS011;47427;51.976;5.326;2022-11-18T01:51:52;11.85;;;4.95;;
45402;SDS011;47427;51.976;5.326;2022-11-18T01:55:21;9.40;;;4.60;;
45402;SDS011;47427;51.976;5.326;2022-11-18T01:58:53;10.10;;;5.38;;
45402;SDS011;47427;51.976;5.326;2022-11-18T02:02:26;11.70;;;5.28;;
45402;SDS011;47427;51.976;5.326;2022-11-18T02:05:50;12.50;;;5.68;;
45402;SDS011;47427;51.976;5.326;2022-11-18T02:09:14;11.98;;;4.88;;
45402;SDS011;47427;51.976;5.326;2022-11-18T02:12:38;9.73;;;5.00;;
45402;SDS011;47427;51.976;5.326;2022-11-18T02:16:17;15.07;;;5.15;;
45402;SDS011;47427;51.976;5.326;2022-11-18T02:35:29;10.63;;;4.78;;
45402;SDS011;47427;51.976;5.326;2022-11-18T02:39:29;10.38;;;5.70;;
45402;SDS011;47427;51.976;5.326;2022-11-18T02:43:08;12.32;;;5.05;;
45402;SDS011;47427;51.976;5.326;2022-11-18T02:46:36;13.40;;;5.15;;
45402;SDS011;47427;51.976;5.326;2022-11-18T02:50:02;8.95;;;4.13;;
45402;SDS011;47427;51.976;5.326;2022-11-18T02:53:28;16.83;;;5.45;;
45402;SDS011;47427;51.976;5.326;2022-11-18T02:56:52;8.57;;;5.57;;
45402;SDS011;47427;51.976;5.326;2022-11-18T03:00:15;9.27;;;4.90;;
45402;SDS011;47427;51.976;5.326;2022-11-18T03:03:37;11.48;;;5.28;;
45402;SDS011;47427;51.976;5.326;2022-11-18T03:07:12;14.02;;;5.30;;
45402;SDS011;47427;51.976;5.326;2022-11-18T03:10:48;12.68;;;5.35;;
45402;SDS011;47427;51.976;5.326;2022-11-18T03:18:26;6.55;;;4.95;;
45402;SDS011;47427;51.976;5.326;2022-11-18T03:25:43;12.68;;;5.45;;
45402;SDS011;47427;51.976;5.326;2022-11-18T03:29:21;9.20;;;5.38;;
45402;SDS011;47427;51.976;5.326;2022-11-18T03:32:50;15.48;;;6.22;;
45402;SDS011;47427;51.976;5.326;2022-11-18T03:36:21;11.27;;;5.00;;
45402;SDS011;47427;51.976;5.326;2022-11-18T03:39:46;8.65;;;5.95;;
45402;SDS011;47427;51.976;5.326;2022-11-18T03:43:23;10.57;;;5.70;;
45402;SDS011;47427;51.976;5.326;2022-11-18T03:46:55;9.73;;;5.32;;
45402;SDS011;47427;51.976;5.326;2022-11-18T03:50:35;13.85;;;4.93;;
45402;SDS011;47427;51.976;5.326;2022-11-18T03:54:05;9.45;;;4.75;;
45402;SDS011;47427;51.976;5.326;2022-11-18T03:58:11;10.02;;;5.20;;
45402;SDS011;47427;51.976;5.326;2022-11-18T04:01:47;9.32;;;5.00;;
45402;SDS011;47427;51.976;5.326;2022-11-18T04:05:17;9.95;;;5.45;;
45402;SDS011;47427;51.976;5.326;2022-11-18T04:08:39;19.23;;;5.85;;
45402;SDS011;47427;51.976;5.326;2022-11-18T04:12:05;9.60;;;5.15;;
45402;SDS011;47427;51.976;5.326;2022-11-18T04:15:35;9.18;;;5.30;;
45402;SDS011;47427;51.976;5.326;2022-11-18T04:18:58;9.88;;;5.75;;
45402;SDS011;47427;51.976;5.326;2022-11-18T04:22:20;12.93;;;5.03;;
45402;SDS011;47427;51.976;5.326;2022-11-18T04:25:41;9.82;;;5.25;;
45402;SDS011;47427;51.976;5.326;2022-11-18T04:29:04;9.60;;;5.15;;
45402;SDS011;47427;51.976;5.326;2022-11-18T04:32:26;12.57;;;4.95;;
45402;SDS011;47427;51.976;5.326;2022-11-18T04:35:48;7.97;;;5.03;;
45402;SDS011;47427;51.976;5.326;2022-11-18T04:39:09;10.95;;;5.45;;
45402;SDS011;47427;51.976;5.326;2022-11-18T04:42:31;10.93;;;6.00;;
45402;SDS011;47427;51.976;5.326;2022-11-18T04:45:53;8.50;;;5.10;;
45402;SDS011;47427;51.976;5.326;2022-11-18T04:49:14;13.15;;;5.45;;
45402;SDS011;47427;51.976;5.326;2022-11-18T04:52:36;8.70;;;5.28;;
45402;SDS011;47427;51.976;5.326;2022-11-18T04:56:04;12.43;;;6.20;;
45402;SDS011;47427;51.976;5.326;2022-11-18T04:59:27;15.32;;;5.32;;
45402;SDS011;47427;51.976;5.326;2022-11-18T05:02:50;8.18;;;5.30;;
45402;SDS011;47427;51.976;5.326;2022-11-18T05:06:12;12.75;;;5.53;;
45402;SDS011;47427;51.976;5.326;2022-11-18T05:09:34;11.07;;;5.22;;
45402;SDS011;47427;51.976;5.326;2022-11-18T05:12:55;10.95;;;4.90;;
45402;SDS011;47427;51.976;5.326;2022-11-18T05:16:17;10.52;;;5.78;;
45402;SDS011;47427;51.976;5.326;2022-11-18T05:19:39;11.32;;;5.90;;
45402;SDS011;47427;51.976;5.326;2022-11-18T05:23:00;10.13;;;4.30;;
45402;SDS011;47427;51.976;5.326;2022-11-18T05:26:22;13.98;;;5.53;;
45402;SDS011;47427;51.976;5.326;2022-11-18T05:29:44;8.85;;;5.18;;
45402;SDS011;47427;51.976;5.326;2022-11-18T05:33:05;8.80;;;4.95;;
45402;SDS011;47427;51.976;5.326;2022-11-18T05:36:27;9.23;;;5.75;;
45402;SDS011;47427;51.976;5.326;2022-11-18T05:39:48;12.40;;;5.43;;
45402;SDS011;47427;51.976;5.326;2022-11-18T05:43:10;10.27;;;5.13;;
45402;SDS011;47427;51.976;5.326;2022-11-18T05:46:32;15.45;;;5.50;;
45402;SDS011;47427;51.976;5.326;2022-11-18T05:49:53;13.77;;;5.20;;
45402;SDS011;47427;51.976;5.326;2022-11-18T05:53:15;9.07;;;5.45;;
45402;SDS011;47427;51.976;5.326;2022-11-18T05:56:39;13.88;;;5.97;;
45402;SDS011;47427;51.976;5.326;2022-11-18T06:00:04;10.35;;;5.10;;
45402;SDS011;47427;51.976;5.326;2022-11-18T06:03:34;13.93;;;5.70;;
45402;SDS011;47427;51.976;5.326;2022-11-18T06:07:21;10.85;;;4.95;;
45402;SDS011;47427;51.976;5.326;2022-11-18T06:11:02;17.77;;;6.68;;
45402;SDS011;47427;51.976;5.326;2022-11-18T06:14:37;11.82;;;5.45;;
45402;SDS011;47427;51.976;5.326;2022-11-18T06:21:46;9.95;;;5.35;;
45402;SDS011;47427;51.976;5.326;2022-11-18T06:25:08;13.10;;;6.25;;
45402;SDS011;47427;51.976;5.326;2022-11-18T06:28:30;15.10;;;5.32;;
45402;SDS011;47427;51.976;5.326;2022-11-18T06:31:52;11.90;;;5.22;;
45402;SDS011;47427;51.976;5.326;2022-11-18T06:35:14;10.65;;;6.43;;
45402;SDS011;47427;51.976;5.326;2022-11-18T06:38:35;10.90;;;5.93;;
45402;SDS011;47427;51.976;5.326;2022-11-18T06:41:57;9.57;;;5.80;;
45402;SDS011;47427;51.976;5.326;2022-11-18T06:45:39;11.18;;;5.45;;
45402;SDS011;47427;51.976;5.326;2022-11-18T06:49:21;11.15;;;5.90;;
45402;SDS011;47427;51.976;5.326;2022-11-18T06:52:46;10.23;;;4.85;;
45402;SDS011;47427;51.976;5.326;2022-11-18T06:56:09;9.57;;;6.13;;
45402;SDS011;47427;51.976;5.326;2022-11-18T06:59:33;11.73;;;5.95;;
45402;SDS011;47427;51.976;5.326;2022-11-18T07:02:54;11.43;;;6.45;;
45402;SDS011;47427;51.976;5.326;2022-11-18T07:06:17;14.27;;;6.32;;
45402;SDS011;47427;51.976;5.326;2022-11-18T07:09:44;9.85;;;5.82;;
45402;SDS011;47427;51.976;5.326;2022-11-18T07:13:05;12.00;;;5.35;;
45402;SDS011;47427;51.976;5.326;2022-11-18T07:16:27;14.55;;;5.80;;
45402;SDS011;47427;51.976;5.326;2022-11-18T07:19:49;12.13;;;5.53;;
45402;SDS011;47427;51.976;5.326;2022-11-18T07:23:10;9.45;;;4.97;;
45402;SDS011;47427;51.976;5.326;2022-11-18T07:26:32;11.80;;;6.43;;
45402;SDS011;47427;51.976;5.326;2022-11-18T07:29:54;10.77;;;5.78;;
45402;SDS011;47427;51.976;5.326;2022-11-18T07:33:16;12.55;;;5.93;;
45402;SDS011;47427;51.976;5.326;2022-11-18T07:36:38;10.32;;;5.28;;
45402;SDS011;47427;51.976;5.326;2022-11-18T07:39:59;12.55;;;5.72;;
45402;SDS011;47427;51.976;5.326;2022-11-18T07:43:21;8.05;;;5.03;;
45402;SDS011;47427;51.976;5.326;2022-11-18T07:46:43;11.13;;;5.60;;
45402;SDS011;47427;51.976;5.326;2022-11-18T07:50:04;13.73;;;5.68;;
45402;SDS011;47427;51.976;5.326;2022-11-18T07:53:29;12.30;;;5.43;;
45402;SDS011;47427;51.976;5.326;2022-11-18T07:56:51;9.93;;;5.47;;
45402;SDS011;47427;51.976;5.326;2022-11-18T08:00:13;11.57;;;5.15;;
45402;SDS011;47427;51.976;5.326;2022-11-18T08:03:35;10.77;;;5.43;;
45402;SDS011;47427;51.976;5.326;2022-11-18T08:06:57;9.75;;;5.40;;
45402;SDS011;47427;51.976;5.326;2022-11-18T08:10:22;11.90;;;5.25;;
45402;SDS011;47427;51.976;5.326;2022-11-18T08:13:45;9.68;;;5.40;;
45402;SDS011;47427;51.976;5.326;2022-11-18T08:17:07;7.88;;;5.30;;
45402;SDS011;47427;51.976;5.326;2022-11-18T08:20:28;11.75;;;4.57;;
45402;SDS011;47427;51.976;5.326;2022-11-18T08:23:54;9.38;;;4.80;;
45402;SDS011;47427;51.976;5.326;2022-11-18T08:27:17;9.10;;;4.88;;
45402;SDS011;47427;51.976;5.326;2022-11-18T08:30:39;6.55;;;4.63;;
45402;SDS011;47427;51.976;5.326;2022-11-18T08:34:02;10.50;;;4.40;;
45402;SDS011;47427;51.976;5.326;2022-11-18T08:37:26;11.07;;;4.43;;
45402;SDS011;47427;51.976;5.326;2022-11-18T08:40:47;8.15;;;4.55;;
45402;SDS011;47427;51.976;5.326;2022-11-18T08:44:09;9.07;;;4.70;;
45402;SDS011;47427;51.976;5.326;2022-11-18T08:47:34;8.88;;;4.80;;
45402;SDS011;47427;51.976;5.326;2022-11-18T08:50:56;7.20;;;4.43;;
45402;SDS011;47427;51.976;5.326;2022-11-18T08:54:18;12.25;;;3.90;;
45402;SDS011;47427;51.976;5.326;2022-11-18T08:57:40;8.48;;;4.70;;
45402;SDS011;47427;51.976;5.326;2022-11-18T09:01:05;9.20;;;4.93;;
45402;SDS011;47427;51.976;5.326;2022-11-18T09:04:27;8.67;;;4.60;;
45402;SDS011;47427;51.976;5.326;2022-11-18T09:07:49;10.60;;;5.10;;
45402;SDS011;47427;51.976;5.326;2022-11-18T09:11:21;8.30;;;4.80;;
45402;SDS011;47427;51.976;5.326;2022-11-18T09:14:46;9.07;;;5.07;;
45402;SDS011;47427;51.976;5.326;2022-11-18T09:18:07;7.75;;;4.03;;
45402;SDS011;47427;51.976;5.326;2022-11-18T09:21:29;9.82;;;3.97;;
45402;SDS011;47427;51.976;5.326;2022-11-18T09:24:50;8.25;;;3.50;;
45402;SDS011;47427;51.976;5.326;2022-11-18T09:28:12;8.43;;;3.53;;
45402;SDS011;47427;51.976;5.326;2022-11-18T09:31:33;7.43;;;3.40;;
45402;SDS011;47427;51.976;5.326;2022-11-18T09:34:55;7.88;;;3.35;;
45402;SDS011;47427;51.976;5.326;2022-11-18T09:38:16;6.68;;;3.42;;
45402;SDS011;47427;51.976;5.326;2022-11-18T09:41:48;6.65;;;3.88;;
45402;SDS011;47427;51.976;5.326;2022-11-18T09:45:34;13.38;;;3.55;;
45402;SDS011;47427;51.976;5.326;2022-11-18T09:49:09;8.43;;;3.65;;
45402;SDS011;47427;51.976;5.326;2022-11-18T09:52:38;7.10;;;3.85;;
45402;SDS011;47427;51.976;5.326;2022-11-18T09:56:37;8.68;;;4.28;;
45402;SDS011;47427;51.976;5.326;2022-11-18T10:00:01;10.43;;;3.72;;
45402;SDS011;47427;51.976;5.326;2022-11-18T10:03:33;10.13;;;4.47;;
45402;SDS011;47427;51.976;5.326;2022-11-18T10:06:55;9.27;;;3.97;;
45402;SDS011;47427;51.976;5.326;2022-11-18T10:10:21;8.63;;;4.30;;
45402;SDS011;47427;51.976;5.326;2022-11-18T10:18:10;8.32;;;3.45;;
45402;SDS011;47427;51.976;5.326;2022-11-18T10:25:18;6.38;;;3.92;;
45402;SDS011;47427;51.976;5.326;2022-11-18T10:28:40;11.02;;;4.70;;
45402;SDS011;47427;51.976;5.326;2022-11-18T10:32:11;8.70;;;4.50;;
45402;SDS011;47427;51.976;5.326;2022-11-18T10:35:36;9.52;;;4.30;;
45402;SDS011;47427;51.976;5.326;2022-11-18T10:39:09;10.15;;;4.55;;
45402;SDS011;47427;51.976;5.326;2022-11-18T10:43:00;7.57;;;4.00;;
45402;SDS011;47427;51.976;5.326;2022-11-18T10:49:53;14.10;;;4.90;;
45402;SDS011;47427;51.976;5.326;2022-11-18T10:56:52;8.95;;;4.38;;
45402;SDS011;47427;51.976;5.326;2022-11-18T11:11:01;14.50;;;4.60;;
45402;SDS011;47427;51.976;5.326;2022-11-18T11:14:31;7.43;;;3.88;;
45402;SDS011;47427;51.976;5.326;2022-11-18T11:18:16;16.35;;;4.07;;
45402;SDS011;47427;51.976;5.326;2022-11-18T11:22:01;20.63;;;4.78;;
45402;SDS011;47427;51.976;5.326;2022-11-18T11:25:32;9.20;;;4.60;;
45402;SDS011;47427;51.976;5.326;2022-11-18T11:40:44;9.55;;;4.28;;
45402;SDS011;47427;51.976;5.326;2022-11-18T11:52:52;14.80;;;4.55;;
45402;SDS011;47427;51.976;5.326;2022-11-18T11:56:17;9.20;;;4.37;;
45402;SDS011;47427;51.976;5.326;2022-11-18T12:00:04;12.35;;;5.05;;
45402;SDS011;47427;51.976;5.326;2022-11-18T12:03:39;12.88;;;5.10;;
45402;SDS011;47427;51.976;5.326;2022-11-18T12:07:07;9.40;;;5.32;;
45402;SDS011;47427;51.976;5.326;2022-11-18T12:10:47;18.77;;;5.88;;
45402;SDS011;47427;51.976;5.326;2022-11-18T12:21:51;9.32;;;4.35;;
45402;SDS011;47427;51.976;5.326;2022-11-18T12:29:54;16.45;;;6.63;;
45402;SDS011;47427;51.976;5.326;2022-11-18T12:33:11;12.38;;;5.80;;
45402;SDS011;47427;51.976;5.326;2022-11-18T12:36:37;12.90;;;6.10;;
45402;SDS011;47427;51.976;5.326;2022-11-18T12:40:00;10.23;;;6.20;;
45402;SDS011;47427;51.976;5.326;2022-11-18T12:47:08;17.65;;;6.30;;
45402;SDS011;47427;51.976;5.326;2022-11-18T12:54:19;9.30;;;5.50;;
45402;SDS011;47427;51.976;5.326;2022-11-18T12:58:00;13.65;;;6.05;;
45402;SDS011;47427;51.976;5.326;2022-11-18T13:01:26;13.20;;;5.95;;
45402;SDS011;47427;51.976;5.326;2022-11-18T13:05:02;11.93;;;6.07;;
45402;SDS011;47427;51.976;5.326;2022-11-18T13:08:41;10.73;;;6.13;;
45402;SDS011;47427;51.976;5.326;2022-11-18T13:12:04;10.80;;;4.78;;
45402;SDS011;47427;51.976;5.326;2022-11-18T13:15:40;12.55;;;5.82;;
45402;SDS011;47427;51.976;5.326;2022-11-18T13:19:22;18.53;;;7.70;;
45402;SDS011;47427;51.976;5.326;2022-11-18T13:22:49;12.60;;;7.40;;
45402;SDS011;47427;51.976;5.326;2022-11-18T13:26:32;15.48;;;7.40;;
45402;SDS011;47427;51.976;5.326;2022-11-18T13:33:33;12.80;;;6.80;;
45402;SDS011;47427;51.976;5.326;2022-11-18T13:36:57;14.53;;;6.77;;
45402;SDS011;47427;51.976;5.326;2022-11-18T13:40:21;16.45;;;7.38;;
45402;SDS011;47427;51.976;5.326;2022-11-18T13:43:47;13.10;;;7.68;;
45402;SDS011;47427;51.976;5.326;2022-11-18T13:51:21;10.38;;;7.28;;
45402;SDS011;47427;51.976;5.326;2022-11-18T13:54:44;11.45;;;7.50;;
45402;SDS011;47427;51.976;5.326;2022-11-18T13:58:30;14.93;;;9.05;;
45402;SDS011;47427;51.976;5.326;2022-11-18T14:02:07;13.60;;;8.80;;
45402;SDS011;47427;51.976;5.326;2022-11-18T14:05:32;21.65;;;9.35;;
45402;SDS011;47427;51.976;5.326;2022-11-18T14:12:34;11.65;;;7.20;;
45402;SDS011;47427;51.976;5.326;2022-11-18T14:15:57;14.23;;;7.47;;
45402;SDS011;47427;51.976;5.326;2022-11-18T14:19:43;11.52;;;6.05;;
45402;SDS011;47427;51.976;5.326;2022-11-18T14:23:11;13.77;;;7.28;;
45402;SDS011;47427;51.976;5.326;2022-11-18T14:26:36;15.35;;;7.90;;
45402;SDS011;47427;51.976;5.326;2022-11-18T14:29:58;15.75;;;7.38;;
45402;SDS011;47427;51.976;5.326;2022-11-18T14:33:21;14.48;;;7.43;;
45402;SDS011;47427;51.976;5.326;2022-11-18T14:36:47;15.68;;;8.25;;
45402;SDS011;47427;51.976;5.326;2022-11-18T14:40:13;16.98;;;7.63;;
45402;SDS011;47427;51.976;5.326;2022-11-18T14:43:35;10.10;;;7.07;;
45402;SDS011;47427;51.976;5.326;2022-11-18T14:46:58;13.88;;;7.90;;
45402;SDS011;47427;51.976;5.326;2022-11-18T14:50:23;13.55;;;7.53;;
45402;SDS011;47427;51.976;5.326;2022-11-18T14:53:45;11.18;;;7.22;;
45402;SDS011;47427;51.976;5.326;2022-11-18T14:57:09;14.48;;;7.53;;
45402;SDS011;47427;51.976;5.326;2022-11-18T15:00:35;14.27;;;7.10;;
45402;SDS011;47427;51.976;5.326;2022-11-18T15:03:57;10.65;;;6.88;;
45402;SDS011;47427;51.976;5.326;2022-11-18T15:07:18;11.50;;;6.45;;
45402;SDS011;47427;51.976;5.326;2022-11-18T15:10:40;9.45;;;7.18;;
45402;SDS011;47427;51.976;5.326;2022-11-18T15:14:02;11.55;;;6.20;;
45402;SDS011;47427;51.976;5.326;2022-11-18T15:17:23;9.00;;;5.63;;
45402;SDS011;47427;51.976;5.326;2022-11-18T15:20:45;10.15;;;6.57;;
45402;SDS011;47427;51.976;5.326;2022-11-18T15:24:06;9.32;;;6.38;;
45402;SDS011;47427;51.976;5.326;2022-11-18T15:27:48;8.75;;;6.40;;
45402;SDS011;47427;51.976;5.326;2022-11-18T15:31:10;11.50;;;6.40;;
45402;SDS011;47427;51.976;5.326;2022-11-18T15:34:31;8.52;;;7.13;;
45402;SDS011;47427;51.976;5.326;2022-11-18T15:37:53;17.10;;;10.45;;
45402;SDS011;47427;51.976;5.326;2022-11-18T15:41:24;13.52;;;10.45;;
45402;SDS011;47427;51.976;5.326;2022-11-18T15:44:48;14.95;;;10.52;;
45402;SDS011;47427;51.976;5.326;2022-11-18T15:48:09;21.60;;;11.02;;
45402;SDS011;47427;51.976;5.326;2022-11-18T15:51:31;17.40;;;11.07;;
45402;SDS011;47427;51.976;5.326;2022-11-18T15:54:53;18.73;;;10.95;;
45402;SDS011;47427;51.976;5.326;2022-11-18T15:58:15;26.23;;;17.17;;
45402;SDS011;47427;51.976;5.326;2022-11-18T16:01:37;15.75;;;12.85;;
45402;SDS011;47427;51.976;5.326;2022-11-18T16:05:09;14.50;;;12.57;;
45402;SDS011;47427;51.976;5.326;2022-11-18T16:08:30;19.55;;;14.75;;
45402;SDS011;47427;51.976;5.326;2022-11-18T16:11:51;22.17;;;13.90;;
45402;SDS011;47427;51.976;5.326;2022-11-18T16:15:32;15.70;;;12.95;;
45402;SDS011;47427;51.976;5.326;2022-11-18T16:19:04;17.60;;;13.30;;
45402;SDS011;47427;51.976;5.326;2022-11-18T16:22:28;16.97;;;14.57;;
45402;SDS011;47427;51.976;5.326;2022-11-18T16:25:51;19.48;;;12.57;;
45402;SDS011;47427;51.976;5.326;2022-11-18T16:29:13;15.32;;;11.00;;
45402;SDS011;47427;51.976;5.326;2022-11-18T16:32:36;14.20;;;10.07;;
45402;SDS011;47427;51.976;5.326;2022-11-18T16:35:59;11.88;;;8.82;;
45402;SDS011;47427;51.976;5.326;2022-11-18T16:39:21;15.50;;;11.20;;
45402;SDS011;47427;51.976;5.326;2022-11-18T16:42:47;15.52;;;9.80;;
45402;SDS011;47427;51.976;5.326;2022-11-18T16:46:10;14.68;;;10.63;;
45402;SDS011;47427;51.976;5.326;2022-11-18T16:49:31;13.32;;;10.88;;
45402;SDS011;47427;51.976;5.326;2022-11-18T16:52:53;16.55;;;9.70;;
45402;SDS011;47427;51.976;5.326;2022-11-18T16:56:15;17.85;;;10.85;;
45402;SDS011;47427;51.976;5.326;2022-11-18T16:59:37;16.98;;;12.52;;
45402;SDS011;47427;51.976;5.326;2022-11-18T17:03:00;16.13;;;11.88;;
45402;SDS011;47427;51.976;5.326;2022-11-18T17:06:23;23.60;;;12.90;;
45402;SDS011;47427;51.976;5.326;2022-11-18T17:09:46;18.70;;;12.90;;
45402;SDS011;47427;51.976;5.326;2022-11-18T17:13:07;22.50;;;13.40;;
45402;SDS011;47427;51.976;5.326;2022-11-18T17:16:30;16.35;;;13.02;;
45402;SDS011;47427;51.976;5.326;2022-11-18T17:19:53;17.45;;;10.65;;
45402;SDS011;47427;51.976;5.326;2022-11-18T17:23:14;20.08;;;12.95;;
45402;SDS011;47427;51.976;5.326;2022-11-18T17:26:37;17.25;;;12.00;;
45402;SDS011;47427;51.976;5.326;2022-11-18T17:30:00;18.00;;;13.80;;
45402;SDS011;47427;51.976;5.326;2022-11-18T17:33:21;25.88;;;15.43;;
45402;SDS011;47427;51.976;5.326;2022-11-18T17:36:45;22.77;;;13.68;;
45402;SDS011;47427;51.976;5.326;2022-11-18T17:40:06;21.33;;;14.55;;
45402;SDS011;47427;51.976;5.326;2022-11-18T17:43:30;16.55;;;12.57;;
45402;SDS011;47427;51.976;5.326;2022-11-18T17:46:53;19.65;;;14.20;;
45402;SDS011;47427;51.976;5.326;2022-11-18T17:50:14;12.90;;;9.98;;
45402;SDS011;47427;51.976;5.326;2022-11-18T17:53:38;11.88;;;8.48;;
45402;SDS011;47427;51.976;5.326;2022-11-18T17:57:00;14.60;;;8.85;;
45402;SDS011;47427;51.976;5.326;2022-11-18T18:00:22;14.50;;;9.07;;
45402;SDS011;47427;51.976;5.326;2022-11-18T18:03:44;10.70;;;7.80;;
45402;SDS011;47427;51.976;5.326;2022-11-18T18:07:07;12.30;;;9.95;;
45402;SDS011;47427;51.976;5.326;2022-11-18T18:10:29;9.30;;;7.50;;
45402;SDS011;47427;51.976;5.326;2022-11-18T18:13:50;10.63;;;8.60;;
45402;SDS011;47427;51.976;5.326;2022-11-18T18:17:31;11.80;;;9.27;;
45402;SDS011;47427;51.976;5.326;2022-11-18T18:20:52;9.93;;;7.43;;
45402;SDS011;47427;51.976;5.326;2022-11-18T18:24:14;13.13;;;8.23;;
45402;SDS011;47427;51.976;5.326;2022-11-18T18:27:39;106.30;;;59.67;;
45402;SDS011;47427;51.976;5.326;2022-11-18T18:31:02;69.75;;;49.00;;
45402;SDS011;47427;51.976;5.326;2022-11-18T18:34:26;48.05;;;35.53;;
45402;SDS011;47427;51.976;5.326;2022-11-18T18:37:48;37.63;;;29.08;;
45402;SDS011;47427;51.976;5.326;2022-11-18T18:41:11;25.70;;;19.67;;
45402;SDS011;47427;51.976;5.326;2022-11-18T18:44:35;21.55;;;16.65;;
45402;SDS011;47427;51.976;5.326;2022-11-18T18:48:15;28.38;;;20.45;;
45402;SDS011;47427;51.976;5.326;2022-11-18T18:51:37;23.52;;;17.98;;
45402;SDS011;47427;51.976;5.326;2022-11-18T18:55:04;95.30;;;43.97;;
45402;SDS011;47427;51.976;5.326;2022-11-18T18:58:26;111.47;;;50.63;;
45402;SDS011;47427;51.976;5.326;2022-11-18T19:01:48;192.48;;;89.05;;
45402;SDS011;47427;51.976;5.326;2022-11-18T19:05:10;43.53;;;28.38;;
45402;SDS011;47427;51.976;5.326;2022-11-18T19:08:32;66.93;;;41.75;;
45402;SDS011;47427;51.976;5.326;2022-11-18T19:11:53;58.88;;;36.90;;
45402;SDS011;47427;51.976;5.326;2022-11-18T19:15:33;33.63;;;23.40;;
45402;SDS011;47427;51.976;5.326;2022-11-18T19:18:55;49.58;;;28.40;;
45402;SDS011;47427;51.976;5.326;2022-11-18T19:22:18;28.23;;;18.70;;
45402;SDS011;47427;51.976;5.326;2022-11-18T19:25:40;28.98;;;19.02;;
45402;SDS011;47427;51.976;5.326;2022-11-18T19:29:03;28.48;;;20.90;;
45402;SDS011;47427;51.976;5.326;2022-11-18T19:32:24;33.97;;;21.70;;
45402;SDS011;47427;51.976;5.326;2022-11-18T19:35:46;35.08;;;20.73;;
45402;SDS011;47427;51.976;5.326;2022-11-18T19:39:07;42.60;;;25.08;;
45402;SDS011;47427;51.976;5.326;2022-11-18T19:42:29;45.38;;;28.70;;
45402;SDS011;47427;51.976;5.326;2022-11-18T19:45:52;43.55;;;26.33;;
45402;SDS011;47427;51.976;5.326;2022-11-18T19:49:13;42.17;;;25.80;;
45402;SDS011;47427;51.976;5.326;2022-11-18T19:52:35;48.80;;;28.10;;
45402;SDS011;47427;51.976;5.326;2022-11-18T19:56:00;42.70;;;25.35;;
45402;SDS011;47427;51.976;5.326;2022-11-18T19:59:25;61.10;;;33.90;;
45402;SDS011;47427;51.976;5.326;2022-11-18T20:02:46;64.15;;;38.88;;
45402;SDS011;47427;51.976;5.326;2022-11-18T20:06:08;44.97;;;30.00;;
45402;SDS011;47427;51.976;5.326;2022-11-18T20:09:31;52.75;;;31.05;;
45402;SDS011;47427;51.976;5.326;2022-11-18T20:12:52;61.70;;;35.40;;
45402;SDS011;47427;51.976;5.326;2022-11-18T20:16:17;58.05;;;33.75;;
45402;SDS011;47427;51.976;5.326;2022-11-18T20:19:43;47.45;;;28.73;;
45402;SDS011;47427;51.976;5.326;2022-11-18T20:23:25;53.53;;;34.42;;
45402;SDS011;47427;51.976;5.326;2022-11-18T20:26:47;47.95;;;28.63;;
45402;SDS011;47427;51.976;5.326;2022-11-18T20:30:08;52.65;;;31.50;;
45402;SDS011;47427;51.976;5.326;2022-11-18T20:33:42;36.25;;;24.70;;
45402;SDS011;47427;51.976;5.326;2022-11-18T20:37:09;73.13;;;42.58;;
45402;SDS011;47427;51.976;5.326;2022-11-18T20:40:32;48.30;;;30.45;;
45402;SDS011;47427;51.976;5.326;2022-11-18T20:43:53;36.28;;;24.13;;
45402;SDS011;47427;51.976;5.326;2022-11-18T20:47:15;48.17;;;29.65;;
45402;SDS011;47427;51.976;5.326;2022-11-18T20:50:37;41.90;;;26.75;;
45402;SDS011;47427;51.976;5.326;2022-11-18T20:53:59;47.83;;;26.33;;
45402;SDS011;47427;51.976;5.326;2022-11-18T20:57:23;44.70;;;27.67;;
45402;SDS011;47427;51.976;5.326;2022-11-18T21:00:45;38.88;;;25.08;;
45402;SDS011;47427;51.976;5.326;2022-11-18T21:04:08;37.67;;;24.08;;
45402;SDS011;47427;51.976;5.326;2022-11-18T21:07:32;39.55;;;23.33;;
45402;SDS011;47427;51.976;5.326;2022-11-18T21:10:58;42.20;;;25.75;;
45402;SDS011;47427;51.976;5.326;2022-11-18T21:14:26;41.10;;;24.10;;
45402;SDS011;47427;51.976;5.326;2022-11-18T21:17:47;44.70;;;25.88;;
45402;SDS011;47427;51.976;5.326;2022-11-18T21:21:10;56.38;;;33.60;;
45402;SDS011;47427;51.976;5.326;2022-11-18T21:24:51;45.00;;;25.08;;
45402;SDS011;47427;51.976;5.326;2022-11-18T21:28:13;52.60;;;30.92;;
45402;SDS011;47427;51.976;5.326;2022-11-18T21:31:35;48.65;;;25.58;;
45402;SDS011;47427;51.976;5.326;2022-11-18T21:34:59;39.72;;;24.27;;
45402;SDS011;47427;51.976;5.326;2022-11-18T21:38:22;36.25;;;23.40;;
45402;SDS011;47427;51.976;5.326;2022-11-18T21:41:44;34.63;;;21.40;;
45402;SDS011;47427;51.976;5.326;2022-11-18T21:45:06;42.17;;;23.95;;
45402;SDS011;47427;51.976;5.326;2022-11-18T21:48:29;33.67;;;19.10;;
45402;SDS011;47427;51.976;5.326;2022-11-18T21:51:52;31.38;;;20.67;;
45402;SDS011;47427;51.976;5.326;2022-11-18T21:55:14;41.45;;;23.08;;
45402;SDS011;47427;51.976;5.326;2022-11-18T21:58:37;35.88;;;20.63;;
45402;SDS011;47427;51.976;5.326;2022-11-18T22:02:00;37.30;;;23.83;;
45402;SDS011;47427;51.976;5.326;2022-11-18T22:05:22;42.35;;;26.30;;
45402;SDS011;47427;51.976;5.326;2022-11-18T22:08:44;47.40;;;27.63;;